Time;durP1;ratioP1;P1;durP2;ratioP2;P2;SDS_P1;SDS_P2;PMS_P1;PMS_P2;Temp;Humidity;BMP_temperature;BMP_pressure;BME280_temperature;BME280_humidity;BME280_pressure;Samples;Min_cycle;Max_cycle;Signal;HPM_P1;HPM_P2
2020/12/02 00:03:13;;;;;;;82.30;48.75;;;;;;;1.48;73.96;100892.94;2936876;80;21156;-60
2020/12/02 00:07:19;;;;;;;132.12;67.08;;;;;;;1.22;75.37;100899.92;2936656;81;21128;-61
2020/12/02 00:11:22;;;;;;;79.30;45.50;;;;;;;1.07;76.60;100908.28;2937312;81;21692;-61
2020/12/02 00:15:25;;;;;;;76.77;51.60;;;;;;;0.94;77.16;100904.73;2936863;80;21136;-60
2020/12/02 00:19:27;;;;;;;117.95;68.00;;;;;;;0.97;77.21;100903.32;2936772;79;21124;-60
2020/12/02 00:23:30;;;;;;;153.65;81.95;;;;;;;1.12;76.90;100911.60;2925108;80;21179;-60
2020/12/02 00:27:33;;;;;;;130.67;68.17;;;;;;;1.34;76.79;100905.66;2886063;82;21160;-60
2020/12/02 00:31:36;;;;;;;110.40;56.40;;;;;;;1.48;75.97;100912.61;2908728;79;21182;-61
2020/12/02 00:35:39;;;;;;;100.60;59.38;;;;;;;1.59;75.38;100904.38;2898501;81;21137;-61
2020/12/02 00:39:42;;;;;;;99.92;57.58;;;;;;;1.71;74.77;100904.40;2934346;81;21149;-61
2020/12/02 00:43:45;;;;;;;109.12;63.25;;;;;;;1.78;74.47;100909.85;2934437;81;21125;-60
2020/12/02 00:47:50;;;;;;;126.05;67.47;;;;;;;1.82;73.98;100907.52;2934258;81;21149;-60
2020/12/02 00:51:56;;;;;;;94.90;57.27;;;;;;;1.84;73.62;100910.94;2934316;81;21125;-60
2020/12/02 00:55:59;;;;;;;79.00;48.87;;;;;;;1.83;73.67;100909.22;2930736;80;21113;-61
2020/12/02 01:00:07;;;;;;;71.15;43.00;;;;;;;1.88;73.48;100916.07;2920843;80;21145;-60
2020/12/02 01:04:17;;;;;;;97.62;55.40;;;;;;;1.92;73.69;100918.98;2921129;81;21176;-60
2020/12/02 01:08:41;;;;;;;89.17;50.80;;;;;;;1.85;73.59;100925.77;2920240;81;21141;-61
2020/12/02 01:12:47;;;;;;;89.75;50.92;;;;;;;1.90;73.96;100922.12;2870534;82;21160;-61
2020/12/02 01:16:53;;;;;;;91.90;50.52;;;;;;;1.91;73.29;100922.52;2870477;81;21129;-60
2020/12/02 01:21:37;;;;;;;74.47;47.27;;;;;;;1.78;72.69;100921.66;2870778;82;21603;-62
2020/12/02 01:25:44;;;;;;;64.47;41.20;;;;;;;1.80;73.37;100917.21;2870714;81;21168;-61
2020/12/02 01:29:50;;;;;;;77.08;43.73;;;;;;;1.81;73.18;100917.61;2870804;82;21167;-60
2020/12/02 01:33:55;;;;;;;76.17;46.28;;;;;;;1.77;73.44;100921.26;2870672;82;21164;-60
2020/12/02 01:38:06;;;;;;;78.17;46.58;;;;;;;1.80;73.95;100918.52;2870258;82;21156;-60
2020/12/02 01:42:12;;;;;;;78.62;49.13;;;;;;;1.87;73.95;100913.05;2870528;82;21164;-60
2020/12/02 01:46:38;;;;;;;76.42;40.35;;;;;;;1.88;73.30;100910.83;2870495;82;21145;-60
2020/12/02 01:50:49;;;;;;;69.90;40.85;;;;;;;1.83;72.86;100913.16;2870343;82;21136;-61
2020/12/02 01:54:56;;;;;;;79.07;44.05;;;;;;;1.78;72.86;100909.85;2841800;82;21153;-60
2020/12/02 01:59:43;;;;;;;69.32;39.08;;;;;;;1.80;72.59;100909.34;2870572;81;21169;-60
2020/12/02 02:03:47;;;;;;;;;;;;;;;1.80;72.58;100901.47;2873100;82;21175;-61
2020/12/02 02:07:50;;;;;;;61.90;38.38;;;;;;;1.75;72.08;100905.16;2870546;82;20230;-60
2020/12/02 02:12:10;;;;;;;66.47;38.85;;;;;;;1.76;72.64;100904.25;2870701;82;21121;-61
2020/12/02 02:16:42;;;;;;;74.07;41.18;;;;;;;1.82;72.81;100907.95;3065664;77;22289;-61
2020/12/02 02:20:50;;;;;;;68.02;36.98;;;;;;;1.84;73.32;100898.26;3017722;78;21115;-60
2020/12/02 02:24:56;;;;;;;64.42;36.55;;;;;;;1.84;72.39;100890.39;2977549;78;21112;-61
2020/12/02 02:29:12;;;;;;;65.10;38.30;;;;;;;1.81;71.92;100892.69;2966453;80;21132;-59
2020/12/02 02:33:16;;;;;;;59.27;37.05;;;;;;;1.83;72.06;100890.86;2966601;80;21113;-60
2020/12/02 02:37:23;;;;;;;73.17;38.98;;;;;;;1.80;72.66;100894.91;2985873;78;21172;-60
2020/12/02 02:41:27;;;;;;;67.72;41.10;;;;;;;1.78;72.35;100897.17;2966191;79;21987;-60
2020/12/02 02:45:30;;;;;;;67.55;42.93;;;;;;;1.72;72.21;100894.31;2966097;80;21135;-60
2020/12/02 02:49:34;;;;;;;66.53;36.30;;;;;;;1.70;72.48;100895.69;2966340;80;21161;-60
2020/12/02 02:53:37;;;;;;;72.15;39.45;;;;;;;1.69;72.60;100893.11;2966297;80;21165;-61
2020/12/02 02:57:40;;;;;;;58.55;39.23;;;;;;;1.67;72.36;100889.69;2966070;80;21117;-61
2020/12/02 03:01:45;;;;;;;67.47;38.23;;;;;;;1.73;73.37;100886.00;3002007;78;21173;-60
2020/12/02 03:05:50;;;;;;;57.08;37.45;;;;;;;1.72;73.42;100887.75;2890088;82;21126;-60
2020/12/02 03:09:53;;;;;;;67.22;38.17;;;;;;;1.74;73.44;100882.46;2928162;81;21184;-60
2020/12/02 03:13:56;;;;;;;73.97;39.65;;;;;;;1.59;72.49;100886.48;2908591;81;21212;-60
2020/12/02 03:18:00;;;;;;;61.33;37.45;;;;;;;1.50;72.31;100879.80;2896867;82;21187;-60
2020/12/02 03:22:08;;;;;;;54.00;35.78;;;;;;;1.40;72.03;100877.94;2884188;81;21167;-60
2020/12/02 03:26:12;;;;;;;69.22;43.63;;;;;;;1.41;72.17;100879.66;2909095;81;21162;-61
2020/12/02 03:30:17;;;;;;;75.65;42.95;;;;;;;1.40;72.40;100879.25;2908522;81;21163;-61
2020/12/02 03:34:21;;;;;;;88.45;44.58;;;;;;;1.40;72.75;100885.33;2908733;81;21186;-60
2020/12/02 03:38:25;;;;;;;64.55;42.38;;;;;;;1.37;72.15;100885.88;2908877;81;21175;-61
2020/12/02 03:42:27;;;;;;;82.80;46.35;;;;;;;1.40;72.41;100884.50;2908534;81;21171;-61
2020/12/02 03:46:31;;;;;;;88.00;50.58;;;;;;;1.32;72.08;100893.92;2908402;81;21151;-61
2020/12/02 03:50:34;;;;;;;90.30;52.62;;;;;;;1.33;72.19;100896.95;2908548;81;21203;-60
2020/12/02 03:54:37;;;;;;;103.22;53.95;;;;;;;1.17;71.34;100896.58;2899934;81;21160;-61
2020/12/02 03:58:40;;;;;;;94.25;53.30;;;;;;;0.97;72.21;100898.08;2902951;81;21089;-61
2020/12/02 04:02:44;;;;;;;86.75;49.80;;;;;;;0.96;72.86;100886.36;2900232;81;21181;-62
2020/12/02 04:06:47;;;;;;;123.25;62.62;;;;;;;0.96;72.23;100884.58;2893857;81;21165;-61
2020/12/02 04:10:49;;;;;;;152.53;83.20;;;;;;;0.93;72.56;100887.77;2903750;81;21121;-60
2020/12/02 04:14:53;;;;;;;108.92;63.50;;;;;;;1.06;73.31;100883.83;2918813;81;21153;-60
2020/12/02 04:18:58;;;;;;;103.07;57.17;;;;;;;1.06;73.31;100883.83;2918355;81;21121;-61
2020/12/02 04:23:01;;;;;;;93.12;58.45;;;;;;;0.94;72.36;100873.30;2873279;81;21137;-64
2020/12/02 04:27:05;;;;;;;83.67;48.00;;;;;;;1.04;73.23;100888.73;2868392;83;21153;-66
2020/12/02 04:31:08;;;;;;;106.03;58.38;;;;;;;1.14;73.56;100886.20;2868587;83;21152;-67
2020/12/02 04:35:11;;;;;;;93.40;54.35;;;;;;;1.24;73.26;100885.00;2898685;81;21189;-64
2020/12/02 04:39:15;;;;;;;91.55;55.05;;;;;;;1.28;72.93;100881.37;2918724;81;21094;-66
2020/12/02 04:43:40;;;;;;;95.30;52.85;;;;;;;1.25;72.54;100886.72;2918382;81;21165;-67
2020/12/02 04:47:44;;;;;;;100.82;58.90;;;;;;;1.22;72.64;100889.44;2918248;81;21133;-66
2020/12/02 04:51:50;;;;;;;103.38;55.92;;;;;;;1.22;72.64;100889.44;2918273;81;21180;-65
2020/12/02 04:55:56;;;;;;;101.33;59.63;;;;;;;1.22;72.32;100888.13;2918251;81;21185;-65
2020/12/02 04:59:59;;;;;;;91.50;57.70;;;;;;;1.22;72.27;100881.58;2918782;81;21710;-64
2020/12/02 05:04:25;;;;;;;94.62;56.98;;;;;;;1.18;71.81;100871.24;2902891;81;21189;-67
2020/12/02 05:08:31;;;;;;;115.67;66.05;;;;;;;1.12;71.89;100869.67;2870463;81;21153;-67
2020/12/02 05:12:43;;;;;;;114.47;67.40;;;;;;;1.19;72.61;100872.52;2882981;81;21161;-66
2020/12/02 05:16:58;;;;;;;117.03;67.53;;;;;;;1.26;72.91;100870.52;2878015;81;21168;-67
2020/12/02 05:21:19;;;;;;;121.70;67.78;;;;;;;1.26;72.50;100874.45;2895862;81;21579;-67
2020/12/02 05:25:33;;;;;;;109.27;69.27;;;;;;;1.16;72.77;100888.78;2918273;81;21129;-66
2020/12/02 05:29:56;;;;;;;141.22;81.78;;;;;;;1.16;73.48;100879.14;2885316;81;21180;-68
2020/12/02 05:34:10;;;;;;;105.92;64.80;;;;;;;1.16;73.48;100879.14;2868452;83;21160;-67
2020/12/02 05:38:33;;;;;;;108.00;59.40;;;;;;;1.19;73.04;100879.06;2990309;77;23442;-67
2020/12/02 05:42:59;;;;;;;99.00;63.55;;;;;;;1.09;72.86;100888.13;2891556;80;21137;-67
2020/12/02 05:47:06;;;;;;;95.43;63.63;;;;;;;1.01;73.20;100882.29;2930628;80;21173;-66
2020/12/02 05:51:19;;;;;;;104.53;62.58;;;;;;;0.95;73.29;100884.17;2951412;80;21134;-66
2020/12/02 05:55:30;;;;;;;91.05;60.52;;;;;;;0.91;73.54;100887.81;2920759;80;21110;-66
2020/12/02 05:59:33;;;;;;;97.65;58.85;;;;;;;0.68;74.08;100876.30;2951898;80;21158;-67
2020/12/02 06:03:37;;;;;;;104.05;59.67;;;;;;;0.68;74.08;100876.30;2951553;80;21126;-66
2020/12/02 06:07:57;;;;;;;121.60;68.95;;;;;;;0.60;74.62;100892.71;2951483;80;21160;-68
2020/12/02 06:12:05;;;;;;;113.97;66.77;;;;;;;0.54;74.94;100891.56;2950737;80;21713;-65
2020/12/02 06:16:34;;;;;;;107.12;61.55;;;;;;;0.54;74.94;100891.56;2951347;80;21102;-67
2020/12/02 06:20:42;;;;;;;119.72;75.03;;;;;;;0.51;74.80;100886.43;2951315;80;21114;-66
2020/12/02 06:24:47;;;;;;;124.70;70.32;;;;;;;0.46;75.03;100893.10;2951092;80;21161;-66
2020/12/02 06:28:50;;;;;;;130.20;74.90;;;;;;;0.36;75.07;100882.05;2951219;80;21189;-66
2020/12/02 06:33:00;;;;;;;118.53;74.10;;;;;;;0.36;75.07;100882.05;2910241;80;21485;-64
2020/12/02 06:37:26;;;;;;;108.85;73.95;;;;;;;0.35;75.28;100880.34;2945104;80;21164;-66
2020/12/02 06:41:33;;;;;;;128.10;75.83;;;;;;;0.32;75.25;100886.14;2957819;80;21370;-65
2020/12/02 06:45:38;;;;;;;115.92;68.25;;;;;;;0.38;75.44;100887.25;2957998;80;21189;-64
2020/12/02 06:49:41;;;;;;;106.78;66.07;;;;;;;0.40;75.47;100890.24;2957828;80;21650;-65
2020/12/02 06:53:44;;;;;;;108.92;69.30;;;;;;;0.42;75.27;100886.25;2956719;80;21149;-66
2020/12/02 06:57:47;;;;;;;127.95;74.40;;;;;;;0.46;75.27;100892.27;2956641;80;21089;-65
2020/12/02 07:01:51;;;;;;;147.53;78.97;;;;;;;0.52;75.31;100889.02;2932475;80;21176;-67
2020/12/02 07:06:20;;;;;;;126.67;76.92;;;;;;;0.45;75.14;100876.16;2956387;80;22172;-67
2020/12/02 07:10:23;;;;;;;119.67;79.87;;;;;;;0.53;75.13;100889.86;2955655;80;21600;-66
2020/12/02 07:14:42;;;;;;;139.12;85.90;;;;;;;0.52;75.35;100896.00;2956167;80;21153;-66
2020/12/02 07:18:48;;;;;;;131.05;74.50;;;;;;;0.48;75.43;100890.45;2956329;80;21145;-65
2020/12/02 07:22:55;;;;;;;174.82;113.92;;;;;;;0.50;75.68;100889.52;2956692;80;22244;-69
2020/12/02 07:26:58;;;;;;;117.28;67.17;;;;;;;0.49;75.67;100890.86;2956346;80;21105;-66
2020/12/02 07:31:23;;;;;;;121.25;66.02;;;;;;;0.51;75.92;100882.50;2956839;79;21580;-67
2020/12/02 07:35:26;;;;;;;126.62;78.12;;;;;;;0.56;76.15;100884.52;2955818;80;21157;-67
2020/12/02 07:39:32;;;;;;;114.42;73.02;;;;;;;0.66;76.52;100885.97;2952400;80;21122;-67
2020/12/02 07:43:36;;;;;;;122.97;73.83;;;;;;;0.77;76.50;100886.06;2952531;80;21128;-65
2020/12/02 07:47:43;;;;;;;132.00;76.80;;;;;;;0.88;76.35;100882.67;2952120;80;21547;-64
2020/12/02 07:51:57;;;;;;;131.55;77.70;;;;;;;0.94;76.04;100877.23;2952145;80;21150;-64
2020/12/02 07:56:04;;;;;;;130.00;80.70;;;;;;;1.04;76.29;100876.95;2951933;80;21114;-64
2020/12/02 08:00:23;;;;;;;134.50;83.87;;;;;;;1.04;76.29;100876.95;2952441;80;21174;-66
2020/12/02 08:04:40;;;;;;;129.18;84.30;;;;;;;1.09;76.41;100881.13;2951999;80;21133;-66
2020/12/02 08:08:42;;;;;;;;;;;;;;;1.16;76.20;100875.68;2954867;80;21153;-64
2020/12/02 08:12:44;;;;;;;130.10;82.05;;;;;;;1.16;76.14;100884.85;2952382;80;20171;-65
2020/12/02 08:16:51;;;;;;;140.70;79.10;;;;;;;1.20;76.60;100877.28;2952174;80;21145;-65
2020/12/02 08:21:15;;;;;;;126.92;78.67;;;;;;;1.28;76.57;100877.91;2926237;80;21149;-66
2020/12/02 08:25:29;;;;;;;122.35;74.05;;;;;;;1.36;76.93;100866.69;2952154;80;21129;-65
2020/12/02 08:29:34;;;;;;;130.60;76.80;;;;;;;1.50;76.93;100867.52;2951629;80;21139;-67
2020/12/02 08:33:37;;;;;;;116.35;72.80;;;;;;;1.67;77.06;100866.95;2952347;79;21170;-65
2020/12/02 08:37:42;;;;;;;129.00;77.42;;;;;;;1.80;76.99;100867.36;2951593;80;21158;-66
2020/12/02 08:41:48;;;;;;;130.35;70.15;;;;;;;1.89;76.91;100850.44;2952285;80;21157;-67
2020/12/02 08:45:55;;;;;;;137.30;87.73;;;;;;;1.94;76.75;100848.94;2952548;80;21577;-66
2020/12/02 08:49:58;;;;;;;131.37;74.90;;;;;;;2.15;76.91;100861.73;2952103;80;21118;-67
2020/12/02 08:54:11;;;;;;;128.15;71.80;;;;;;;2.30;76.74;100857.66;2952429;80;21145;-65
2020/12/02 08:58:14;;;;;;;135.72;82.72;;;;;;;2.42;76.52;100857.64;2951963;80;22197;-65
2020/12/02 09:02:18;;;;;;;131.67;85.65;;;;;;;2.48;76.76;100850.86;2952495;80;21137;-64
2020/12/02 09:06:21;;;;;;;120.65;75.03;;;;;;;2.62;76.72;100850.31;2952115;80;21121;-66
2020/12/02 09:10:24;;;;;;;214.12;136.72;;;;;;;2.67;75.89;100844.41;2952045;80;21161;-65
2020/12/02 09:14:29;;;;;;;152.62;96.47;;;;;;;2.73;75.93;100835.43;2952394;80;21468;-65
2020/12/02 09:18:32;;;;;;;143.90;86.28;;;;;;;2.81;75.53;100832.50;2952167;80;21149;-66
2020/12/02 09:22:35;;;;;;;126.07;79.50;;;;;;;2.83;75.32;100824.09;2952105;80;21149;-64
2020/12/02 09:26:38;;;;;;;149.32;92.00;;;;;;;2.88;75.33;100823.44;2952402;80;21189;-66
2020/12/02 09:30:41;;;;;;;122.62;85.55;;;;;;;2.90;75.28;100823.38;2952268;79;21113;-63
2020/12/02 09:34:43;;;;;;;149.60;99.80;;;;;;;3.03;75.31;100819.78;2951967;80;22226;-66
2020/12/02 09:38:48;;;;;;;133.97;85.57;;;;;;;3.06;74.98;100802.56;2952205;80;21106;-64
2020/12/02 09:43:29;;;;;;;131.27;77.62;;;;;;;3.07;74.79;100798.57;2952040;80;21149;-65
2020/12/02 09:47:33;;;;;;;125.15;78.15;;;;;;;3.02;74.63;100797.05;2952261;80;21133;-65
2020/12/02 09:51:36;;;;;;;106.72;70.12;;;;;;;3.00;74.84;100796.66;2951977;80;21162;-64
2020/12/02 09:55:39;;;;;;;106.65;68.75;;;;;;;3.05;74.87;100796.91;2951969;80;21137;-66
2020/12/02 09:59:43;;;;;;;94.17;62.93;;;;;;;3.08;74.25;100792.39;2952084;80;21137;-64
2020/12/02 10:04:17;;;;;;;110.22;60.58;;;;;;;2.97;74.19;100781.47;2952511;80;21157;-65
2020/12/02 10:09:03;;;;;;;93.65;58.75;;;;;;;2.99;74.38;100777.86;2953119;80;21181;-67
2020/12/02 10:13:40;;;;;;;82.60;47.62;;;;;;;3.11;74.84;100783.05;2952266;80;21153;-68
2020/12/02 10:18:08;;;;;;;80.55;49.25;;;;;;;3.20;74.19;100773.05;2952423;80;21153;-67
2020/12/02 10:22:26;;;;;;;117.30;70.62;;;;;;;3.15;74.39;100774.59;2951916;80;21110;-67
2020/12/02 10:26:42;;;;;;;128.27;79.55;;;;;;;3.23;74.60;100767.21;2952374;80;21146;-67
2020/12/02 10:31:10;;;;;;;104.92;67.92;;;;;;;3.30;74.44;100765.17;2924058;79;21097;-68
2020/12/02 10:35:14;;;;;;;110.63;68.17;;;;;;;3.40;74.13;100757.25;2939831;80;21160;-64
2020/12/02 10:39:23;;;;;;;166.77;99.13;;;;;;;3.39;74.25;100753.39;2904952;81;21088;-65
2020/12/02 10:43:51;;;;;;;139.20;77.10;;;;;;;3.46;74.01;100749.56;2903868;81;21164;-63
2020/12/02 10:48:21;;;;;;;122.02;78.45;;;;;;;3.47;74.20;100746.00;2904088;81;21167;-64
2020/12/02 10:52:24;;;;;;;181.50;104.00;;;;;;;3.42;73.88;100738.31;2904120;82;21093;-65
2020/12/02 10:56:27;;;;;;;118.62;60.73;;;;;;;3.46;73.94;100733.78;2904174;81;21443;-68
2020/12/02 11:00:33;;;;;;;147.57;79.40;;;;;;;3.49;73.81;100736.27;2925696;80;21105;-66
2020/12/02 11:04:36;;;;;;;100.07;58.73;;;;;;;3.48;73.22;100725.83;2950005;80;21133;-67
2020/12/02 11:09:00;;;;;;;111.00;64.90;;;;;;;3.41;73.35;100727.40;2947462;80;21114;-67
2020/12/02 11:13:43;;;;;;;171.57;103.42;;;;;;;3.41;73.92;100716.88;2947359;80;21138;-67
2020/12/02 11:18:14;;;;;;;100.55;62.43;;;;;;;3.43;73.76;100711.09;2947316;80;21121;-67
2020/12/02 11:22:52;;;;;;;136.80;87.20;;;;;;;3.40;73.56;100695.93;2947074;80;21153;-70
2020/12/02 11:26:55;;;;;;;139.55;78.35;;;;;;;3.38;73.42;100685.94;2947579;80;21153;-67
2020/12/02 11:31:06;;;;;;;142.05;74.70;;;;;;;3.44;73.82;100683.02;2947376;79;21146;-67
2020/12/02 11:35:33;;;;;;;146.90;80.85;;;;;;;3.54;73.64;100684.32;2946562;80;21130;-65
2020/12/02 11:40:06;;;;;;;79.00;37.97;;;;;;;3.61;73.21;100682.71;2947209;80;21110;-66
2020/12/02 11:44:20;;;;;;;82.27;50.70;;;;;;;3.51;72.89;100671.28;2947018;80;21153;-68
2020/12/02 11:48:41;;;;;;;72.17;42.98;;;;;;;3.60;73.06;100666.06;2947207;80;21150;-68
2020/12/02 11:53:21;;;;;;;74.95;44.30;;;;;;;3.68;72.99;100657.36;2947136;80;21142;-68
2020/12/02 11:57:25;;;;;;;101.97;58.52;;;;;;;3.66;72.96;100653.09;2947342;80;21142;-67
2020/12/02 12:02:14;;;;;;;141.07;74.87;;;;;;;3.67;73.22;100645.58;2947003;80;21149;-67
2020/12/02 12:06:24;;;;;;;72.35;38.48;;;;;;;3.71;73.32;100637.48;2947121;80;21126;-67
2020/12/02 12:10:42;;;;;;;80.25;51.98;;;;;;;3.77;72.59;100631.08;2947905;80;21151;-67
2020/12/02 12:15:24;;;;;;;100.62;59.63;;;;;;;3.89;72.74;100620.87;2997218;77;22919;-66
2020/12/02 12:19:38;;;;;;;71.40;42.85;;;;;;;3.93;72.45;100609.25;2951667;80;21129;-67
2020/12/02 12:24:12;;;;;;;81.42;52.83;;;;;;;3.99;72.44;100604.55;2951420;80;21728;-66
2020/12/02 12:28:21;;;;;;;59.27;38.73;;;;;;;4.06;72.08;100586.67;2951597;79;21156;-67
2020/12/02 12:32:47;;;;;;;57.75;35.83;;;;;;;4.06;71.84;100584.52;2918199;80;21121;-70
2020/12/02 12:36:55;;;;;;;55.97;33.97;;;;;;;4.04;71.32;100579.32;2900182;82;21139;-67
2020/12/02 12:41:21;;;;;;;64.05;40.25;;;;;;;3.98;71.41;100567.31;2900231;81;21443;-66
2020/12/02 12:45:34;;;;;;;51.37;35.78;;;;;;;3.96;71.21;100564.38;2900656;81;21548;-69
2020/12/02 12:49:37;;;;;;;55.48;34.05;;;;;;;3.96;71.27;100557.80;2900169;81;21153;-67
2020/12/02 12:53:42;;;;;;;47.55;31.93;;;;;;;3.93;71.13;100556.61;2900418;82;21176;-65
2020/12/02 12:57:50;;;;;;;46.30;30.48;;;;;;;3.92;71.07;100554.91;2900408;82;21145;-66
2020/12/02 13:01:57;;;;;;;47.13;32.03;;;;;;;3.93;70.87;100553.98;2900392;82;21152;-67
2020/12/02 13:06:25;;;;;;;87.25;54.63;;;;;;;3.91;71.13;100545.31;2900272;80;21149;-66
2020/12/02 13:10:49;;;;;;;139.65;83.33;;;;;;;3.88;70.30;100544.16;2899197;82;21162;-66
2020/12/02 13:15:00;;;;;;;71.92;43.90;;;;;;;3.83;70.95;100542.61;2900818;81;21175;-68
2020/12/02 13:19:22;;;;;;;92.10;54.50;;;;;;;3.78;71.65;100537.19;2899962;82;21595;-68
2020/12/02 13:23:43;;;;;;;83.47;55.03;;;;;;;3.73;72.47;100541.34;2899302;82;21117;-67
2020/12/02 13:28:03;;;;;;;90.17;57.73;;;;;;;3.65;72.83;100539.57;2899294;81;21153;-67
2020/12/02 13:32:26;;;;;;;98.90;61.73;;;;;;;3.56;73.39;100541.73;2899258;80;21187;-68
2020/12/02 13:36:34;;;;;;;79.07;56.88;;;;;;;3.50;73.95;100542.01;2899276;82;21157;-62
2020/12/02 13:40:37;;;;;;;75.37;53.63;;;;;;;3.40;73.91;100535.50;2899380;82;21178;-63
2020/12/02 13:45:14;;;;;;;75.12;47.58;;;;;;;3.27;74.13;100534.77;2899399;82;21169;-63
2020/12/02 13:49:18;;;;;;;73.47;49.35;;;;;;;3.20;74.42;100537.75;2899749;82;21129;-61
2020/12/02 13:53:35;;;;;;;76.22;51.45;;;;;;;3.16;74.82;100541.00;2899363;82;21121;-63
2020/12/02 13:57:52;;;;;;;74.62;45.38;;;;;;;3.11;74.94;100535.95;2899470;82;21157;-63
2020/12/02 14:02:12;;;;;;;78.80;46.55;;;;;;;3.09;75.28;100529.05;2898924;80;21153;-62
2020/12/02 14:06:29;;;;;;;76.22;49.67;;;;;;;3.08;75.48;100525.59;2899245;82;21157;-63
2020/12/02 14:10:35;;;;;;;82.60;52.33;;;;;;;3.07;75.46;100528.28;2899182;82;21571;-62
2020/12/02 14:14:44;;;;;;;103.22;52.35;;;;;;;2.98;75.57;100529.11;2898969;81;21149;-63
2020/12/02 14:18:47;;;;;;;98.40;51.30;;;;;;;2.92;75.73;100524.11;2899047;82;21117;-63
2020/12/02 14:22:50;;;;;;;82.60;53.55;;;;;;;2.84;75.93;100524.94;2900310;80;21107;-63
2020/12/02 14:26:53;;;;;;;86.47;47.38;;;;;;;2.76;76.17;100521.82;2945206;80;21600;-63
2020/12/02 14:30:56;;;;;;;86.35;50.40;;;;;;;2.69;76.27;100518.14;2946954;79;21126;-62
2020/12/02 14:35:00;;;;;;;91.60;53.40;;;;;;;2.59;76.62;100508.12;2946921;80;21229;-62
2020/12/02 14:39:04;;;;;;;80.92;52.60;;;;;;;2.53;76.89;100510.55;2947253;80;21145;-62
2020/12/02 14:43:14;;;;;;;84.90;52.30;;;;;;;2.48;77.04;100507.29;2947341;80;21138;-64
2020/12/02 14:47:17;;;;;;;87.67;51.18;;;;;;;2.42;77.19;100509.27;2947124;80;21150;-62
2020/12/02 14:51:20;;;;;;;76.37;45.85;;;;;;;2.41;77.23;100515.45;2947228;80;21125;-63
2020/12/02 14:55:23;;;;;;;71.33;41.33;;;;;;;2.38;77.06;100512.09;2947256;80;21145;-63
2020/12/02 15:04:25;;;;;;;75.65;45.12;;;;;;;2.34;77.15;100507.42;2831416;83;21676;-62
2020/12/02 15:08:52;;;;;;;70.83;47.58;;;;;;;2.30;77.20;100501.92;2831028;84;21609;-63
2020/12/02 15:12:55;;;;;;;82.37;47.38;;;;;;;2.30;77.18;100503.23;2819084;84;22262;-62
2020/12/02 15:17:15;;;;;;;65.03;42.78;;;;;;;2.28;77.31;100498.52;2813485;82;21178;-62
2020/12/02 15:21:21;;;;;;;71.82;40.67;;;;;;;2.24;77.40;100498.27;2787579;83;21152;-62
2020/12/02 15:25:25;;;;;;;72.95;45.88;;;;;;;2.22;77.48;100498.32;2775483;84;21668;-62
2020/12/02 15:29:30;;;;;;;57.00;41.25;;;;;;;2.21;77.43;100490.53;2789696;83;21159;-61
2020/12/02 15:33:37;;;;;;;88.70;54.18;;;;;;;2.21;77.48;100491.84;2776728;84;21666;-62
2020/12/02 15:38:04;;;;;;;81.32;50.92;;;;;;;2.19;77.64;100492.38;2774443;84;21609;-62
2020/12/02 15:42:18;;;;;;;78.92;48.60;;;;;;;2.16;77.68;100485.47;2804063;84;21146;-62
2020/12/02 15:46:32;;;;;;;61.92;41.77;;;;;;;2.16;77.68;100476.73;2826286;84;21154;-62
2020/12/02 15:50:56;;;;;;;74.35;50.80;;;;;;;2.13;77.75;100478.58;2824955;84;21643;-63
2020/12/02 15:55:26;;;;;;;81.12;44.13;;;;;;;2.11;77.84;100475.17;2824963;84;21170;-62
2020/12/02 16:00:02;;;;;;;86.92;48.83;;;;;;;2.09;77.93;100470.45;2739441;86;21328;-62
2020/12/02 16:04:21;;;;;;;75.08;46.00;;;;;;;2.14;77.89;100472.41;2975184;77;22937;-60
2020/12/02 16:08:36;;;;;;;94.97;57.50;;;;;;;2.08;77.82;100466.12;2904518;82;21196;-62
2020/12/02 16:12:40;;;;;;;136.03;80.67;;;;;;;2.04;77.77;100472.43;2849139;83;21157;-62
2020/12/02 16:16:44;;;;;;;188.03;102.50;;;;;;;2.02;77.67;100479.52;2808124;82;21133;-62
2020/12/02 16:20:49;;;;;;;164.00;93.12;;;;;;;1.99;77.59;100480.97;2844809;83;21152;-62
2020/12/02 16:24:57;;;;;;;166.18;90.12;;;;;;;1.91;77.57;100477.80;2846815;83;21599;-62
2020/12/02 16:29:00;;;;;;;180.35;95.17;;;;;;;1.84;77.63;100475.89;2838334;83;21618;-62
2020/12/02 16:33:11;;;;;;;187.55;102.12;;;;;;;1.81;77.70;100467.72;2838566;83;21157;-62
2020/12/02 16:37:39;;;;;;;168.28;89.37;;;;;;;1.77;77.58;100479.26;2841393;83;22285;-62
2020/12/02 16:42:10;;;;;;;258.63;153.18;;;;;;;1.76;77.53;100481.94;2827542;83;21125;-63
2020/12/02 16:46:27;;;;;;;154.82;96.40;;;;;;;1.72;77.47;100472.02;2850999;83;21594;-62
2020/12/02 16:50:38;;;;;;;167.32;101.53;;;;;;;1.67;77.53;100470.06;2856638;82;21168;-62
2020/12/02 16:55:04;;;;;;;269.50;155.90;;;;;;;1.51;77.85;100454.95;2843291;82;21647;-62
2020/12/02 16:59:14;;;;;;;237.90;144.13;;;;;;;1.52;78.15;100463.21;2856412;81;21629;-62
2020/12/02 17:03:22;;;;;;;311.82;189.55;;;;;;;1.45;78.45;100456.53;2854823;81;21153;-62
2020/12/02 17:07:45;;;;;;;297.52;178.02;;;;;;;1.42;78.69;100450.11;2988316;77;23511;-61
2020/12/02 17:12:10;;;;;;;217.50;128.40;;;;;;;1.32;78.85;100448.76;2927817;79;21157;-60
2020/12/02 17:16:56;;;;;;;226.70;139.47;;;;;;;1.24;79.02;100446.00;2929054;79;21105;-61
2020/12/02 17:21:26;;;;;;;214.53;128.27;;;;;;;1.20;79.04;100433.95;2916303;79;21131;-61
2020/12/02 17:25:52;;;;;;;185.55;118.47;;;;;;;1.15;79.35;100439.81;2925362;79;21164;-61
2020/12/02 17:30:09;;;;;;;193.17;114.17;;;;;;;1.15;79.35;100439.81;2940763;79;21591;-61
2020/12/02 17:34:33;;;;;;;187.72;116.30;;;;;;;1.07;79.16;100432.73;2900310;80;21168;-60
2020/12/02 17:39:14;;;;;;;188.93;116.30;;;;;;;1.02;79.39;100425.52;2901153;80;21663;-60
2020/12/02 17:44:02;;;;;;;198.32;119.22;;;;;;;0.90;79.70;100432.93;2902302;80;21180;-60
2020/12/02 17:48:40;;;;;;;195.92;113.68;;;;;;;0.84;79.95;100422.70;2829932;82;21530;-60
2020/12/02 17:53:17;;;;;;;213.32;120.42;;;;;;;0.72;80.42;100417.48;2980972;77;22867;-62
2020/12/02 17:57:24;;;;;;;171.40;90.22;;;;;;;0.61;80.57;100421.83;2925324;79;21109;-62
2020/12/02 18:01:56;;;;;;;213.82;120.53;;;;;;;0.37;81.58;100430.14;2932546;79;21132;-62
2020/12/02 18:06:46;;;;;;;210.07;117.17;;;;;;;0.22;82.13;100423.72;2911161;79;21173;-62
2020/12/02 18:11:35;;;;;;;206.00;116.88;;;;;;;0.03;82.84;100425.70;2919777;80;21161;-62
2020/12/02 18:15:43;;;;;;;165.12;93.10;;;;;;;0.03;83.06;100440.52;2939527;80;21140;-62
2020/12/02 18:20:00;;;;;;;202.25;116.88;;;;;;;-0.08;82.92;100435.67;2825431;82;21615;-63
2020/12/02 18:24:21;;;;;;;197.15;113.15;;;;;;;-0.10;83.00;100442.72;2838660;82;21118;-62
2020/12/02 18:28:40;;;;;;;196.63;115.37;;;;;;;-0.09;82.83;100425.68;2811978;83;21113;-63
2020/12/02 18:33:05;;;;;;;180.12;107.03;;;;;;;-0.02;82.73;100438.06;2784813;83;21145;-64
2020/12/02 18:37:35;;;;;;;189.20;110.20;;;;;;;0.05;82.27;100438.70;2832908;82;21149;-64
2020/12/02 18:42:09;;;;;;;163.57;87.75;;;;;;;0.06;82.20;100443.02;2830019;82;21558;-64
2020/12/02 18:46:17;;;;;;;188.47;113.20;;;;;;;0.00;82.30;100448.04;2807196;82;21180;-65
2020/12/02 18:50:21;;;;;;;178.90;93.95;;;;;;;-0.01;82.20;100444.55;2806562;84;21152;-62
2020/12/02 18:54:24;;;;;;;187.80;108.63;;;;;;;-0.02;82.13;100441.55;2842733;83;21138;-65
2020/12/02 18:58:42;;;;;;;170.25;103.87;;;;;;;-0.02;82.04;100440.67;2844800;82;21156;-63
2020/12/02 19:02:56;;;;;;;197.70;112.10;;;;;;;-0.05;82.11;100431.63;2824008;84;21144;-67
2020/12/02 19:07:07;;;;;;;216.27;117.22;;;;;;;0.02;82.50;100430.97;2831678;84;21161;-64
2020/12/02 19:11:36;;;;;;;172.05;108.25;;;;;;;0.11;82.36;100428.03;2829252;84;21512;-66
2020/12/02 19:16:20;;;;;;;199.82;110.12;;;;;;;0.14;81.95;100425.30;2849023;82;21161;-64
2020/12/02 19:20:55;;;;;;;186.07;95.90;;;;;;;0.17;81.65;100422.58;3037043;77;22770;-63